Whiting Fld NAS, FL

1:05 PM CDT on April 01, 2015 (GMT -0500)
Hurlburt | | Change Station
CLOSE
Current Station
Airport
Location: Hurlburt Field,
Elevation: 39 ft
Nearby Weather Stations

Elev 39 ft 30.43 °N, 86.69 °W | Updated 1 hour ago

Partly Cloudy
Partly Cloudy
75 °F
Feels Like 75 °F
N
12
Wind Variable Wind from SSW

Today
High -- | Low -- °F
--% Chance of Precip.
Yesterday
High -- | Low -- °F
Precip. -- in
6:37 AM 7:07 PM
Waxing Gibbous, 93% visible
Pressure 30.11 in
Visibility 10.0 miles
Clouds Few 3500 ft
Dew Point 61 °F
Humidity 62%
Rainfall 0.00 in
Snow Depth Not available.
UV 10 out of 12
Pollen 10.40 out of 12
Air Quality Not available.
Flu Activity Not available.
METAR KHRT 011658Z AUTO 20010KT 10SM FEW035 24/16 A3010 RMK AO2 SLP194 T02370161 $

More Conditions Fewer Conditions

Pressure 30.11 in
Visibility 10.0 miles
Clouds Few 3500 ft
Dew Point 61 °F
Humidity 62%
Rainfall 0.00 in
Snow Depth Not available.
UV 10 out of 12
Pollen 10.40 out of 12
Air Quality Not available.
Flu Activity Not available.
METAR KHRT 011658Z AUTO 20010KT 10SM FEW035 24/16 A3010 RMK AO2 SLP194 T02370161 $

More Conditions Fewer Conditions

10-Day Weather Forecast

Almanac

Astronomy

Apr. 01, 2015 Rise Set
Actual Time
Civil Twilight
Nautical Twilight
Astronomical Twilight
Moon
Length of Visible Light
Length of Day
Tomorrow will be .
, % of the Moon is Illuminated

Today's Extremes

State Highs State Lows

Community

WunderPhotos

Upload Photos

1,810,032 photos uploaded!

WunderBlogs® & News

Nearby

Air Quality

  Air Quality AQ Index Pollutant
Not available.

Snow Depth

Station Depth Elevation

Earthquake Activity

City Distance Mag. Time & Date
Minimum magnitude displayed is 2.5.

Coastal Water Temperatures

Place Temperature

Stations

Nearby Weather Stations

Station Location Temp. Windchill Dew Point Humidity Wind Precip. Elev Updated Type